Time,TemperatureF,DewpointF,PressureIn,WindDirection,WindDirectionDegrees,WindSpeedMPH,WindSpeedGustMPH,Humidity,HourlyPrecipIn,Conditions,Clouds,dailyrainin,SoftwareType,DateUTC
2013-02-04 00:22:00,29.0,16.0,29.94,NE,41,7.0,17.0,57,0.00,,,0.00,,2013-02-04 05:22:00,
2013-02-04 00:33:00,29.0,16.0,29.94,NE,41,7.0,17.0,57,0.00,,,0.00,,2013-02-04 05:33:00,
2013-02-04 00:42:00,29.0,16.0,29.94,NE,41,7.0,17.0,57,0.00,,,0.00,,2013-02-04 05:42:00,
2013-02-04 00:52:00,28.0,15.0,29.94,NNE,28,5.0,12.0,57,0.00,,,0.00,,2013-02-04 05:52:00,
2013-02-04 01:02:00,28.0,15.0,29.94,NE,50,5.0,14.0,57,0.00,,,0.00,,2013-02-04 06:02:00,
2013-02-04 01:11:00,28.0,15.0,29.94,NE,50,5.0,14.0,57,0.00,,,0.00,,2013-02-04 06:11:00,
2013-02-04 01:21:00,28.0,15.0,29.94,NNW,348,6.0,17.0,57,0.00,,,0.00,,2013-02-04 06:21:00,
2013-02-04 01:32:00,27.0,14.0,29.93,ENE,58,6.0,22.0,57,0.00,,,0.00,,2013-02-04 06:32:00,
2013-02-04 01:42:00,27.0,14.0,29.93,ENE,58,6.0,22.0,57,0.00,,,0.00,,2013-02-04 06:42:00,
2013-02-04 01:52:00,27.0,14.0,29.94,ENE,70,6.0,16.0,57,0.00,,,0.00,,2013-02-04 06:52:00,
2013-02-04 02:02:00,27.0,14.0,29.94,NNE,26,6.0,16.0,57,0.00,,,0.00,,2013-02-04 07:02:00,
2013-02-04 02:11:00,27.0,14.0,29.94,NNE,26,6.0,16.0,57,0.00,,,0.00,,2013-02-04 07:11:00,
2013-02-04 02:21:00,27.0,14.0,29.94,NNE,26,6.0,16.0,57,0.00,,,0.00,,2013-02-04 07:21:00,
2013-02-04 02:32:00,27.0,14.0,29.94,NNE,21,5.0,14.0,57,0.00,,,0.00,,2013-02-04 07:32:00,
2013-02-04 02:42:00,27.0,14.0,29.94,NNE,21,5.0,14.0,57,0.00,,,0.00,,2013-02-04 07:42:00,
2013-02-04 02:52:00,27.0,14.0,29.94,NNE,21,5.0,14.0,57,0.00,,,0.00,,2013-02-04 07:52:00,
2013-02-04 03:01:00,26.0,13.0,29.95,NNE,28,3.0,10.0,57,0.00,,,0.00,,2013-02-04 08:01:00,
2013-02-04 03:11:00,26.0,13.0,29.95,NNE,28,3.0,10.0,57,0.00,,,0.00,,2013-02-04 08:11:00,
2013-02-04 03:21:00,26.0,13.0,29.95,NNW,341,4.0,12.0,57,0.00,,,0.00,,2013-02-04 08:21:00,
2013-02-04 03:32:00,26.0,13.0,29.95,NNW,341,4.0,12.0,57,0.00,,,0.00,,2013-02-04 08:32:00,
2013-02-04 03:42:00,26.0,13.0,29.95,NNW,341,4.0,12.0,57,0.00,,,0.00,,2013-02-04 08:42:00,
2013-02-04 03:52:00,26.0,13.0,29.94,NE,36,0.0,12.0,57,0.00,,,0.00,,2013-02-04 08:52:00,
2013-02-04 04:02:00,26.0,13.0,29.94,WNW,296,1.0,9.0,57,0.00,,,0.00,,2013-02-04 09:02:00,
2013-02-04 04:11:00,26.0,13.0,29.95,North,11,1.0,7.0,57,0.00,,,0.00,,2013-02-04 09:11:00,
2013-02-04 04:21:00,26.0,13.0,29.95,North,11,1.0,7.0,57,0.00,,,0.00,,2013-02-04 09:21:00,
2013-02-04 04:32:00,26.0,13.0,29.95,NNE,20,2.0,10.0,57,0.00,,,0.00,,2013-02-04 09:32:00,
2013-02-04 04:42:00,26.0,13.0,29.95,NNE,20,2.0,10.0,57,0.00,,,0.00,,2013-02-04 09:42:00,
2013-02-04 04:52:00,26.0,13.0,29.95,East,100,0.0,6.0,57,0.00,,,0.00,,2013-02-04 09:52:00,
2013-02-04 05:01:00,26.0,13.0,29.95,East,100,0.0,6.0,57,0.00,,,0.00,,2013-02-04 10:01:00,
2013-02-04 05:11:00,26.0,13.0,29.95,East,100,0.0,6.0,57,0.00,,,0.00,,2013-02-04 10:11:00,
2013-02-04 05:21:00,26.0,13.0,29.95,East,100,0.0,6.0,57,0.00,,,0.00,,2013-02-04 10:21:00,
2013-02-04 05:32:00,26.0,13.0,29.98,NNW,340,3.0,6.0,57,0.00,,,0.00,,2013-02-04 10:32:00,
2013-02-04 05:42:00,26.0,13.0,29.98,NNW,340,3.0,6.0,57,0.00,,,0.00,,2013-02-04 10:42:00,
2013-02-04 05:52:00,26.0,13.0,29.98,NW,322,0.0,5.0,57,0.00,,,0.00,,2013-02-04 10:52:00,
2013-02-04 06:02:00,26.0,13.0,29.98,NW,322,0.0,5.0,57,0.00,,,0.00,,2013-02-04 11:02:00,
2013-02-04 06:11:00,26.0,13.0,29.98,NW,322,0.0,5.0,57,0.00,,,0.00,,2013-02-04 11:11:00,
2013-02-04 06:22:00,26.0,13.0,29.99,NW,305,0.0,0.0,57,0.00,,,0.00,,2013-02-04 11:22:00,
2013-02-04 06:32:00,26.0,13.0,30.00,NNE,29,3.0,8.0,57,0.00,,,0.00,,2013-02-04 11:32:00,
2013-02-04 06:42:00,26.0,13.0,30.00,NNE,29,3.0,8.0,57,0.00,,,0.00,,2013-02-04 11:42:00,
2013-02-04 06:52:00,25.0,12.0,30.00,North,5,4.0,8.0,57,0.00,,,0.00,,2013-02-04 11:52:00,
2013-02-04 07:02:00,25.0,12.0,30.02,NNE,14,3.0,7.0,57,0.00,,,0.00,,2013-02-04 12:02:00,
2013-02-04 07:12:00,25.0,12.0,30.02,NNE,14,3.0,7.0,57,0.00,,,0.00,,2013-02-04 12:12:00,
2013-02-04 07:22:00,25.0,12.0,30.02,NE,47,3.0,10.0,57,0.00,,,0.00,,2013-02-04 12:22:00,
2013-02-04 07:32:00,25.0,12.0,30.02,NE,39,3.0,7.0,57,0.00,,,0.00,,2013-02-04 12:32:00,
2013-02-04 07:42:00,25.0,12.0,30.02,NE,39,3.0,7.0,57,0.00,,,0.00,,2013-02-04 12:42:00,
2013-02-04 07:53:00,25.0,12.0,30.02,NE,39,3.0,7.0,57,0.00,,,0.00,,2013-02-04 12:53:00,
2013-02-04 08:02:00,25.0,12.0,30.02,NE,39,3.0,7.0,57,0.00,,,0.00,,2013-02-04 13:02:00,
2013-02-04 08:12:00,25.0,12.0,30.04,North,356,1.0,5.0,57,0.00,,,0.00,,2013-02-04 13:12:00,
2013-02-04 08:22:00,25.0,12.0,30.04,North,356,1.0,5.0,57,0.00,,,0.00,,2013-02-04 13:22:00,
2013-02-04 08:33:00,25.0,12.0,30.05,NE,38,0.0,6.0,57,0.00,,,0.00,,2013-02-04 13:33:00,
2013-02-04 08:42:00,25.0,12.0,30.05,NE,38,0.0,6.0,57,0.00,,,0.00,,2013-02-04 13:42:00,
2013-02-04 08:52:00,25.0,12.0,30.05,NE,38,0.0,6.0,57,0.00,,,0.00,,2013-02-04 13:52:00,
2013-02-04 09:03:00,26.0,13.0,30.06,NNE,16,0.0,8.0,57,0.00,,,0.00,,2013-02-04 14:03:00,
2013-02-04 09:12:00,26.0,13.0,30.06,NNE,16,0.0,8.0,57,0.00,,,0.00,,2013-02-04 14:12:00,
2013-02-04 09:23:00,27.0,14.0,30.06,North,5,4.0,10.0,57,0.00,,,0.00,,2013-02-04 14:23:00,
2013-02-04 09:33:00,27.0,18.0,30.06,North,10,5.0,10.0,68,0.00,,,0.00,,2013-02-04 14:33:00,
2013-02-04 09:42:00,28.0,19.0,30.06,North,1,4.0,10.0,68,0.00,,,0.00,,2013-02-04 14:42:00,
2013-02-04 09:52:00,28.0,19.0,30.06,North,1,4.0,10.0,68,0.00,,,0.00,,2013-02-04 14:52:00,
2013-02-04 10:03:00,28.0,19.0,30.06,NNW,335,2.0,12.0,68,0.00,,,0.00,,2013-02-04 15:03:00,
2013-02-04 10:12:00,28.0,19.0,30.06,NNW,335,2.0,12.0,68,0.00,,,0.00,,2013-02-04 15:12:00,
2013-02-04 10:23:00,29.0,19.0,30.06,North,11,1.0,7.0,67,0.00,,,0.00,,2013-02-04 15:23:00,
2013-02-04 10:33:00,29.0,19.0,30.05,NNE,28,6.0,12.0,67,0.00,,,0.00,,2013-02-04 15:33:00,
2013-02-04 10:43:00,29.0,19.0,30.05,NNE,28,6.0,12.0,67,0.00,,,0.00,,2013-02-04 15:43:00,
2013-02-04 10:53:00,30.0,20.0,30.05,NE,55,3.0,9.0,66,0.00,,,0.00,,2013-02-04 15:53:00,
2013-02-04 11:03:00,30.0,20.0,30.05,NW,309,0.0,8.0,66,0.00,,,0.00,,2013-02-04 16:03:00,
2013-02-04 11:11:00,30.0,20.0,30.05,NW,309,0.0,8.0,66,0.00,,,0.00,,2013-02-04 16:11:00,
2013-02-04 11:22:00,30.0,20.0,30.05,NW,309,0.0,8.0,66,0.00,,,0.00,,2013-02-04 16:22:00,
2013-02-04 11:33:00,31.0,20.0,30.05,ENE,58,2.0,3.0,64,0.00,,,0.00,,2013-02-04 16:33:00,
2013-02-04 11:42:00,31.0,20.0,30.05,ENE,58,2.0,3.0,64,0.00,,,0.00,,2013-02-04 16:42:00,
2013-02-04 11:52:00,31.0,20.0,30.05,WNW,287,1.0,5.0,63,0.00,,,0.00,,2013-02-04 16:52:00,
2013-02-04 12:02:00,31.0,20.0,30.04,SSE,148,0.0,2.0,63,0.00,,,0.00,,2013-02-04 17:02:00,
2013-02-04 12:11:00,32.0,20.0,30.05,SSE,162,4.0,6.0,61,0.00,,,0.00,,2013-02-04 17:11:00,
2013-02-04 12:21:00,32.0,20.0,30.05,SSE,162,4.0,6.0,61,0.00,,,0.00,,2013-02-04 17:21:00,
2013-02-04 12:32:00,31.0,20.0,30.03,SSE,155,6.0,9.0,62,0.00,,,0.00,,2013-02-04 17:32:00,
2013-02-04 12:42:00,31.0,20.0,30.03,SSE,155,6.0,10.0,62,0.00,,,0.00,,2013-02-04 17:42:00,
2013-02-04 12:52:00,31.0,20.0,30.03,SSE,155,6.0,10.0,62,0.00,,,0.00,,2013-02-04 17:52:00,
2013-02-04 13:03:00,32.0,20.0,30.02,SSE,166,5.0,8.0,62,0.00,,,0.00,,2013-02-04 18:03:00,
2013-02-04 13:11:00,32.0,20.0,30.02,SSE,166,5.0,8.0,62,0.00,,,0.00,,2013-02-04 18:11:00,
2013-02-04 13:22:00,32.0,20.0,30.02,SSE,166,5.0,8.0,62,0.00,,,0.00,,2013-02-04 18:22:00,
2013-02-04 13:32:00,33.0,21.0,30.00,WSW,247,0.0,5.0,60,0.00,,,0.00,,2013-02-04 18:32:00,
2013-02-04 13:42:00,33.0,21.0,30.00,WSW,247,0.0,5.0,60,0.00,,,0.00,,2013-02-04 18:42:00,
2013-02-04 13:52:00,34.0,22.0,29.99,ESE,110,1.0,3.0,60,0.00,,,0.00,,2013-02-04 18:52:00,
2013-02-04 14:02:00,34.0,22.0,29.99,WSW,250,1.0,5.0,60,0.00,,,0.00,,2013-02-04 19:02:00,
2013-02-04 14:11:00,34.0,22.0,29.99,WSW,250,1.0,5.0,60,0.00,,,0.00,,2013-02-04 19:11:00,
2013-02-04 14:22:00,34.0,21.0,29.97,SSE,152,5.0,6.0,59,0.00,,,0.00,,2013-02-04 19:22:00,
2013-02-04 14:32:00,34.0,21.0,29.97,SSE,152,5.0,6.0,59,0.00,,,0.00,,2013-02-04 19:32:00,
2013-02-04 14:42:00,34.0,21.0,29.97,SSE,152,5.0,6.0,59,0.00,,,0.00,,2013-02-04 19:42:00,
2013-02-04 14:52:00,35.0,22.0,29.97,SE,124,1.0,5.0,58,0.00,,,0.00,,2013-02-04 19:52:00,
2013-02-04 15:00:00,36.0,23.0,29.96,South,178,3.0,6.0,58,0.00,,,0.00,,2013-02-04 20:00:00,
2013-02-04 15:02:00,35.0,22.0,29.97,SE,124,1.0,5.0,58,0.00,,,0.00,,2013-02-04 20:02:00,
2013-02-04 15:12:00,35.0,22.0,29.97,SE,124,1.0,5.0,58,0.00,,,0.00,,2013-02-04 20:12:00,
2013-02-04 15:22:00,36.0,23.0,29.96,South,178,3.0,6.0,58,0.00,,,0.00,,2013-02-04 20:22:00,
2013-02-04 15:32:00,36.0,23.0,29.96,South,178,3.0,6.0,58,0.00,,,0.00,,2013-02-04 20:32:00,
2013-02-04 15:42:00,36.0,23.0,29.96,South,178,3.0,6.0,58,0.00,,,0.00,,2013-02-04 20:42:00,
2013-02-04 15:52:00,36.0,23.0,29.96,South,178,3.0,6.0,58,0.00,,,0.00,,2013-02-04 20:52:00,
2013-02-04 16:32:00,37.0,23.0,29.93,SSE,164,2.0,7.0,57,0.00,,,0.00,,2013-02-04 21:32:00,
2013-02-04 16:43:00,37.0,23.0,29.93,SSE,164,2.0,7.0,57,0.00,,,0.00,,2013-02-04 21:43:00,
2013-02-04 16:52:00,37.0,23.0,29.93,SSE,163,10.0,13.0,57,0.00,,,0.00,,2013-02-04 21:52:00,
2013-02-04 17:03:00,37.0,23.0,29.92,SSE,161,6.0,13.0,57,0.00,,,0.00,,2013-02-04 22:03:00,
2013-02-04 17:12:00,37.0,23.0,29.92,SSE,161,6.0,13.0,57,0.00,,,0.00,,2013-02-04 22:12:00,
2013-02-04 17:21:00,37.0,23.0,29.92,SSE,162,8.0,13.0,57,0.00,,,0.00,,2013-02-04 22:21:00,
2013-02-04 17:32:00,37.0,24.0,29.91,South,170,8.0,13.0,58,0.00,,,0.00,,2013-02-04 22:32:00,
2013-02-04 17:42:00,37.0,24.0,29.91,South,170,8.0,13.0,58,0.00,,,0.00,,2013-02-04 22:42:00,
2013-02-04 17:52:00,36.0,23.0,29.91,SSE,167,7.0,13.0,59,0.00,,,0.00,,2013-02-04 22:52:00,
2013-02-04 18:01:00,36.0,23.0,29.91,SSE,167,7.0,13.0,59,0.00,,,0.00,,2013-02-04 23:01:00,
2013-02-04 18:11:00,36.0,23.0,29.91,SSE,167,7.0,13.0,59,0.00,,,0.00,,2013-02-04 23:11:00,
2013-02-04 18:21:00,36.0,23.0,29.91,SSE,166,9.0,12.0,59,0.00,,,0.00,,2013-02-04 23:21:00,
2013-02-04 18:32:00,36.0,23.0,29.91,SSE,154,9.0,13.0,60,0.00,,,0.00,,2013-02-04 23:32:00,
2013-02-04 18:42:00,36.0,23.0,29.91,SSE,154,9.0,13.0,60,0.00,,,0.00,,2013-02-04 23:42:00,
2013-02-04 18:52:00,35.0,23.0,29.92,South,169,10.0,13.0,61,0.00,,,0.00,,2013-02-04 23:52:00,
2013-02-04 19:02:00,35.0,23.0,29.92,SSE,165,9.0,12.0,61,0.00,,,0.00,,2013-02-05 00:02:00,
2013-02-04 19:11:00,35.0,23.0,29.92,SSE,165,9.0,12.0,61,0.00,,,0.00,,2013-02-05 00:11:00,
2013-02-04 19:22:00,35.0,23.0,29.92,SSE,159,9.0,12.0,61,0.00,,,0.00,,2013-02-05 00:22:00,
2013-02-04 19:32:00,35.0,23.0,29.92,SSE,163,5.0,10.0,61,0.00,,,0.00,,2013-02-05 00:32:00,
2013-02-04 19:42:00,35.0,23.0,29.92,SSE,163,5.0,10.0,61,0.00,,,0.00,,2013-02-05 00:42:00,
2013-02-04 19:52:00,35.0,23.0,29.92,SSE,163,5.0,10.0,60,0.00,,,0.00,,2013-02-05 00:52:00,
2013-02-04 20:02:00,35.0,23.0,29.92,SSE,159,3.0,7.0,60,0.00,,,0.00,,2013-02-05 01:02:00,
2013-02-04 20:11:00,35.0,23.0,29.92,SSE,156,1.0,6.0,61,0.00,,,0.00,,2013-02-05 01:11:00,
2013-02-04 20:22:00,35.0,23.0,29.92,SSE,156,1.0,6.0,61,0.00,,,0.00,,2013-02-05 01:22:00,
2013-02-04 20:32:00,35.0,23.0,29.92,SSE,156,1.0,6.0,61,0.00,,,0.00,,2013-02-05 01:32:00,
2013-02-04 20:42:00,35.0,23.0,29.92,SSE,156,1.0,6.0,61,0.00,,,0.00,,2013-02-05 01:42:00,
2013-02-04 20:52:00,35.0,23.0,29.93,ENE,66,1.0,2.0,62,0.00,,,0.00,,2013-02-05 01:52:00,
2013-02-04 21:01:00,35.0,23.0,29.92,SSE,161,1.0,5.0,62,0.00,,,0.00,,2013-02-05 02:01:00,
2013-02-04 21:11:00,35.0,23.0,29.92,SSE,161,1.0,5.0,62,0.00,,,0.00,,2013-02-05 02:11:00,
2013-02-04 21:22:00,35.0,23.0,29.92,SSE,161,1.0,5.0,62,0.00,,,0.00,,2013-02-05 02:22:00,
2013-02-04 21:32:00,36.0,25.0,29.92,South,178,4.0,9.0,63,0.00,,,0.00,,2013-02-05 02:32:00,
2013-02-04 21:42:00,36.0,25.0,29.92,South,178,4.0,9.0,63,0.00,,,0.00,,2013-02-05 02:42:00,
2013-02-04 21:52:00,36.0,25.0,29.92,South,178,4.0,9.0,63,0.00,,,0.00,,2013-02-05 02:52:00,
2013-02-04 22:02:00,36.0,25.0,29.92,South,178,4.0,9.0,63,0.00,,,0.00,,2013-02-05 03:02:00,
2013-02-04 22:11:00,36.0,25.0,29.92,South,178,4.0,9.0,63,0.00,,,0.00,,2013-02-05 03:11:00,
2013-02-04 22:22:00,35.0,24.0,29.92,ESE,120,0.0,2.0,64,0.00,,,0.00,,2013-02-05 03:22:00,
2013-02-04 22:32:00,35.0,24.0,29.91,SSW,195,0.0,2.0,64,0.00,,,0.00,,2013-02-05 03:32:00,
2013-02-04 22:42:00,35.0,24.0,29.91,SSW,195,0.0,2.0,64,0.00,,,0.00,,2013-02-05 03:42:00,
2013-02-04 22:52:00,35.0,24.0,29.91,SSW,195,0.0,2.0,64,0.00,,,0.00,,2013-02-05 03:52:00,
2013-02-04 23:01:00,36.0,25.0,29.90,South,173,3.0,6.0,64,0.00,,,0.00,,2013-02-05 04:01:00,
2013-02-04 23:22:00,36.0,25.0,29.90,SSW,196,3.0,8.0,64,0.00,,,0.00,,2013-02-05 04:22:00,
2013-02-04 23:32:00,36.0,25.0,29.89,ENE,74,5.0,6.0,64,0.00,,,0.00,,2013-02-05 04:32:00,
2013-02-04 23:52:00,35.0,24.0,29.89,SE,142,2.0,3.0,65,0.00,,,0.00,,2013-02-05 04:52:00,